Time;durP1;ratioP1;P1;durP2;ratioP2;P2;SDS_P1;SDS_P2;PMS_P1;PMS_P2;Temp;Humidity;BMP_temperature;BMP_pressure;BME280_temperature;BME280_humidity;BME280_pressure;Samples;Min_cycle;Max_cycle;Signal;HPM_P1;HPM_P2
2024/03/22 00:00:13;;;;;;;8.80;5.70;;;;;;;1.76;60.87;93513.00;520625;28;839;-68
2024/03/22 00:00:28;;;;;;;7.50;5.63;;;;;;;1.69;61.21;93523.63;520700;28;836;-68
2024/03/22 00:00:44;;;;;;;7.53;5.43;;;;;;;1.60;61.51;93523.84;520855;28;780;-68
2024/03/22 00:00:59;;;;;;;7.47;5.70;;;;;;;1.51;61.60;93519.34;520852;28;859;-68
2024/03/22 00:01:14;;;;;;;8.53;6.13;;;;;;;1.42;61.64;93516.84;520986;28;752;-68
2024/03/22 00:01:30;;;;;;;8.27;5.90;;;;;;;1.35;61.81;93511.84;520929;28;789;-68
2024/03/22 00:01:46;;;;;;;7.27;5.40;;;;;;;1.33;61.65;93512.34;520895;28;757;-68
2024/03/22 00:02:01;;;;;;;7.97;5.57;;;;;;;1.36;62.15;93516.06;520906;28;985;-68
2024/03/22 00:02:17;;;;;;;7.95;5.75;;;;;;;1.39;61.98;93506.91;520911;28;911;-68
2024/03/22 00:02:32;;;;;;;7.73;5.80;;;;;;;1.40;62.00;93505.69;520898;28;796;-68
2024/03/22 00:02:48;;;;;;;8.50;5.72;;;;;;;1.45;61.34;93511.16;520900;28;879;-68
2024/03/22 00:03:04;;;;;;;11.90;5.87;;;;;;;1.45;61.74;93505.72;520947;28;1082;-68
2024/03/22 00:03:20;;;;;;;11.40;5.95;;;;;;;1.52;61.54;93516.13;520975;28;914;-68
2024/03/22 00:03:35;;;;;;;9.10;5.80;;;;;;;1.54;61.13;93513.66;520865;28;824;-68
2024/03/22 00:03:51;;;;;;;7.77;5.50;;;;;;;1.54;61.62;93516.38;520910;28;843;-68
2024/03/22 00:04:06;;;;;;;5.90;5.25;;;;;;;1.51;61.68;93508.47;520979;28;815;-68
2024/03/22 00:04:21;;;;;;;6.90;5.60;;;;;;;1.49;61.24;93517.09;520935;28;847;-68
2024/03/22 00:04:37;;;;;;;7.63;5.93;;;;;;;1.50;61.25;93509.69;520829;28;804;-69
2024/03/22 00:04:53;;;;;;;7.43;5.72;;;;;;;1.46;61.56;93515.38;520848;28;1062;-68
2024/03/22 00:05:08;;;;;;;6.77;5.63;;;;;;;1.47;61.68;93507.97;520892;28;789;-68
2024/03/22 00:05:24;;;;;;;7.68;5.93;;;;;;;1.50;61.59;93512.41;520961;28;885;-68
2024/03/22 00:05:39;;;;;;;8.73;5.97;;;;;;;1.50;61.60;93515.88;520824;28;832;-68
2024/03/22 00:05:55;;;;;;;8.18;5.60;;;;;;;1.54;61.57;93513.66;520876;28;847;-68
2024/03/22 00:06:10;;;;;;;7.67;5.50;;;;;;;1.56;61.10;93517.88;520868;28;748;-68
2024/03/22 00:06:25;;;;;;;7.50;5.57;;;;;;;1.56;61.85;93515.16;521002;28;797;-68
2024/03/22 00:06:42;;;;;;;7.85;5.47;;;;;;;1.59;61.33;93516.91;520939;28;836;-68
2024/03/22 00:06:57;;;;;;;8.18;5.40;;;;;;;1.62;61.79;93515.94;520908;28;812;-68
2024/03/22 00:07:13;;;;;;;7.22;5.50;;;;;;;1.62;61.52;93513.22;520840;28;772;-68
2024/03/22 00:07:28;;;;;;;6.60;5.40;;;;;;;1.65;61.45;93520.38;520926;28;765;-68
2024/03/22 00:07:44;;;;;;;6.53;5.32;;;;;;;1.67;61.56;93518.66;520849;28;1004;-68
2024/03/22 00:07:59;;;;;;;7.17;5.57;;;;;;;1.69;61.56;93515.47;520905;28;823;-68
2024/03/22 00:08:15;;;;;;;8.05;5.90;;;;;;;1.64;61.20;93511.50;520934;28;843;-68
2024/03/22 00:08:30;;;;;;;6.10;5.33;;;;;;;1.66;60.87;93514.47;520805;28;1085;-68
2024/03/22 00:08:45;;;;;;;6.25;5.13;;;;;;;1.67;60.79;93515.94;520910;28;761;-68
2024/03/22 00:09:01;;;;;;;7.17;5.53;;;;;;;1.61;60.89;93498.84;520826;28;769;-68
2024/03/22 00:09:17;;;;;;;7.93;6.00;;;;;;;1.57;60.94;93500.31;520863;28;915;-68
2024/03/22 00:09:33;;;;;;;7.55;5.95;;;;;;;1.66;60.97;93516.44;520862;28;781;-68
2024/03/22 00:09:49;;;;;;;7.32;6.00;;;;;;;1.69;61.13;93518.19;520798;28;828;-68
2024/03/22 00:10:06;;;;;;;7.47;5.90;;;;;;;1.71;61.00;93515.72;520953;28;816;-69
2024/03/22 00:10:21;;;;;;;6.43;5.68;;;;;;;1.70;60.54;93514.97;520792;28;938;-68
2024/03/22 00:10:37;;;;;;;6.63;5.63;;;;;;;1.71;60.75;93521.16;520925;28;757;-68
2024/03/22 00:10:52;;;;;;;6.57;5.30;;;;;;;1.70;60.29;93514.22;520918;28;793;-68
2024/03/22 00:11:08;;;;;;;6.80;5.15;;;;;;;1.70;60.41;93514.22;520902;28;844;-68
2024/03/22 00:11:23;;;;;;;7.07;4.93;;;;;;;1.66;60.99;93514.47;520895;28;800;-68
2024/03/22 00:11:42;;;;;;;7.63;5.30;;;;;;;1.69;61.28;93524.34;520812;28;918;-68
2024/03/22 00:11:57;;;;;;;9.55;6.65;;;;;;;1.66;60.96;93525.34;520860;28;884;-68
2024/03/22 00:12:13;;;;;;;10.23;6.72;;;;;;;1.64;61.12;93521.63;520840;28;903;-68
2024/03/22 00:12:28;;;;;;;8.80;6.40;;;;;;;1.64;60.66;93522.38;520924;28;761;-68
2024/03/22 00:12:44;;;;;;;7.93;6.47;;;;;;;1.66;60.71;93519.16;520871;28;922;-68
2024/03/22 00:12:59;;;;;;;8.70;6.10;;;;;;;1.66;60.48;93519.91;520906;28;843;-68
2024/03/22 00:13:15;;;;;;;8.27;6.05;;;;;;;1.67;61.05;93513.22;520880;28;792;-68
2024/03/22 00:13:30;;;;;;;8.13;6.23;;;;;;;1.71;60.91;93518.44;520888;28;847;-68
2024/03/22 00:13:45;;;;;;;8.57;6.10;;;;;;;1.72;60.44;93517.19;520908;28;768;-68
2024/03/22 00:14:02;;;;;;;7.73;5.80;;;;;;;1.73;59.92;93518.69;520964;28;781;-68
2024/03/22 00:14:18;;;;;;;7.90;5.75;;;;;;;1.74;60.80;93515.47;520823;28;939;-68
2024/03/22 00:14:33;;;;;;;8.23;5.78;;;;;;;1.76;60.26;93515.72;520818;28;808;-68
2024/03/22 00:14:51;;;;;;;6.97;5.67;;;;;;;1.77;59.80;93516.47;520794;28;773;-68
2024/03/22 00:15:07;;;;;;;7.00;5.72;;;;;;;1.75;60.33;93508.06;520948;28;834;-68
2024/03/22 00:15:22;;;;;;;7.60;5.85;;;;;;;1.71;60.50;93521.88;520963;28;812;-69
2024/03/22 00:15:38;;;;;;;8.73;5.68;;;;;;;1.66;60.50;93514.47;520832;28;772;-68
2024/03/22 00:15:53;;;;;;;8.07;5.67;;;;;;;1.65;60.40;93514.94;520907;28;1084;-68
2024/03/22 00:16:08;;;;;;;7.78;6.05;;;;;;;1.63;61.05;93520.88;520886;28;895;-69
2024/03/22 00:16:24;;;;;;;7.67;5.57;;;;;;;1.64;60.87;93519.66;520959;28;784;-68
2024/03/22 00:16:40;;;;;;;7.00;5.55;;;;;;;1.65;61.19;93514.94;520813;28;808;-68
2024/03/22 00:16:55;;;;;;;8.17;6.10;;;;;;;1.63;61.44;93509.25;520864;28;807;-68
2024/03/22 00:17:11;;;;;;;8.65;6.25;;;;;;;1.65;60.92;93512.97;520919;28;867;-70
2024/03/22 00:17:26;;;;;;;7.63;5.87;;;;;;;1.66;61.18;93516.44;520849;28;781;-68
2024/03/22 00:17:45;;;;;;;7.60;5.40;;;;;;;1.67;61.36;93518.66;520822;28;903;-68
2024/03/22 00:18:00;;;;;;;7.20;5.38;;;;;;;1.66;60.95;93513.72;520876;28;812;-68
2024/03/22 00:18:16;;;;;;;6.85;5.60;;;;;;;1.65;61.51;93507.53;520884;28;824;-68
2024/03/22 00:18:31;;;;;;;7.20;5.70;;;;;;;1.65;61.67;93510.25;520924;28;891;-68
2024/03/22 00:18:46;;;;;;;7.32;5.78;;;;;;;1.67;61.84;93515.22;520822;28;902;-68
2024/03/22 00:19:02;;;;;;;7.17;5.70;;;;;;;1.67;61.84;93509.78;520905;28;745;-68
2024/03/22 00:19:18;;;;;;;7.00;5.55;;;;;;;1.69;61.60;93516.19;520933;28;915;-68
2024/03/22 00:19:34;;;;;;;6.10;5.47;;;;;;;1.72;61.65;93517.19;520714;28;1989;-68
2024/03/22 00:19:50;;;;;;;6.88;5.30;;;;;;;1.72;61.55;93512.50;520856;28;824;-68
2024/03/22 00:20:06;;;;;;;7.60;5.28;;;;;;;1.71;61.14;93511.00;520798;28;800;-68
2024/03/22 00:20:21;;;;;;;7.03;5.43;;;;;;;1.71;61.81;93513.72;520912;28;804;-68
2024/03/22 00:20:37;;;;;;;6.33;5.17;;;;;;;1.72;61.37;93511.75;520814;28;852;-68
2024/03/22 00:20:52;;;;;;;7.45;5.22;;;;;;;1.72;61.19;93514.47;520815;28;856;-70
2024/03/22 00:21:08;;;;;;;7.50;5.43;;;;;;;1.73;61.17;93511.28;520922;28;773;-68
2024/03/22 00:21:24;;;;;;;8.00;5.43;;;;;;;1.75;60.87;93505.34;520855;28;903;-68
2024/03/22 00:21:39;;;;;;;7.28;5.47;;;;;;;1.78;60.99;93509.78;520848;28;804;-68
2024/03/22 00:21:55;;;;;;;6.47;5.67;;;;;;;1.79;60.56;93500.38;520892;28;820;-68
2024/03/22 00:22:10;;;;;;;6.90;5.68;;;;;;;1.76;60.68;93506.81;520953;28;742;-68
2024/03/22 00:22:26;;;;;;;6.63;5.63;;;;;;;1.76;60.71;93506.81;520829;28;918;-68
2024/03/22 00:22:41;;;;;;;7.88;6.05;;;;;;;1.76;60.59;93512.25;520870;28;800;-68
2024/03/22 00:22:57;;;;;;;8.07;5.77;;;;;;;1.75;60.73;93500.63;520825;28;996;-68
2024/03/22 00:23:12;;;;;;;6.80;5.70;;;;;;;1.75;60.63;93506.09;520934;28;757;-68
2024/03/22 00:23:29;;;;;;;6.43;5.72;;;;;;;1.77;60.71;93505.59;520855;28;769;-68
2024/03/22 00:23:47;;;;;;;6.68;5.60;;;;;;;1.72;60.77;93492.69;520887;28;847;-68
2024/03/22 00:24:03;;;;;;;7.18;5.60;;;;;;;1.79;60.88;93500.38;520857;28;975;-68
2024/03/22 00:24:18;;;;;;;7.72;5.70;;;;;;;1.82;60.86;93504.88;520766;28;840;-68
2024/03/22 00:24:34;;;;;;;6.90;5.90;;;;;;;1.79;61.24;93506.59;520852;28;810;-68
2024/03/22 00:24:49;;;;;;;7.88;5.68;;;;;;;1.76;60.91;93520.41;520827;28;868;-69
2024/03/22 00:25:06;;;;;;;9.07;6.00;;;;;;;1.75;60.94;93513.50;520877;28;891;-68
2024/03/22 00:25:21;;;;;;;8.15;6.93;;;;;;;1.74;60.68;93514.72;520927;28;847;-68
2024/03/22 00:25:37;;;;;;;8.73;7.00;;;;;;;1.73;60.89;93513.25;520844;28;844;-68
2024/03/22 00:25:52;;;;;;;9.35;6.72;;;;;;;1.72;60.63;93515.22;520832;28;836;-69
2024/03/22 00:26:07;;;;;;;12.93;8.03;;;;;;;1.73;60.90;93513.25;520929;28;832;-68
2024/03/22 00:26:23;;;;;;;17.17;9.83;;;;;;;1.67;60.64;93509.78;520832;28;801;-68
2024/03/22 00:26:39;;;;;;;17.52;10.15;;;;;;;1.64;60.99;93505.28;520908;28;851;-69
2024/03/22 00:26:54;;;;;;;16.60;10.13;;;;;;;1.63;60.62;93506.50;520881;28;820;-68
2024/03/22 00:27:11;;;;;;;17.20;10.50;;;;;;;1.63;60.97;93509.25;520839;28;843;-68
2024/03/22 00:27:27;;;;;;;17.23;10.35;;;;;;;1.63;60.56;93510.00;520814;28;840;-68
2024/03/22 00:27:42;;;;;;;15.18;9.70;;;;;;;1.57;60.82;93506.50;520854;28;903;-68
2024/03/22 00:27:58;;;;;;;13.23;8.93;;;;;;;1.57;60.95;93508.47;520901;28;776;-69
2024/03/22 00:28:13;;;;;;;13.18;8.90;;;;;;;1.59;60.67;93506.00;520901;28;852;-69
2024/03/22 00:28:28;;;;;;;13.33;9.40;;;;;;;1.58;60.79;93501.81;520877;28;836;-68
2024/03/22 00:28:44;;;;;;;15.43;9.70;;;;;;;1.57;61.44;93508.47;520894;28;1112;-69
2024/03/22 00:28:59;;;;;;;16.10;9.38;;;;;;;1.58;61.73;93507.25;520837;28;887;-68
2024/03/22 00:29:15;;;;;;;14.00;9.27;;;;;;;1.57;61.32;93511.94;520923;28;824;-68
2024/03/22 00:29:30;;;;;;;17.45;10.38;;;;;;;1.55;61.53;93514.41;520868;28;761;-68
2024/03/22 00:29:46;;;;;;;18.83;10.53;;;;;;;1.53;61.32;93506.75;520769;28;788;-69
2024/03/22 00:30:01;;;;;;;16.25;10.20;;;;;;;1.57;61.78;93516.63;520864;28;753;-70
2024/03/22 00:30:17;;;;;;;15.97;10.90;;;;;;;1.57;61.51;93506.50;520978;28;820;-70
2024/03/22 00:30:32;;;;;;;15.32;10.00;;;;;;;1.59;61.89;93508.72;520970;28;824;-70
2024/03/22 00:30:47;;;;;;;13.83;8.83;;;;;;;1.57;61.86;93508.47;521199;28;773;-69
2024/03/22 00:31:03;;;;;;;12.50;8.68;;;;;;;1.59;61.62;93512.19;520920;28;781;-68
2024/03/22 00:31:19;;;;;;;12.40;8.87;;;;;;;1.60;61.91;93513.69;521058;28;828;-69
2024/03/22 00:31:34;;;;;;;12.15;9.05;;;;;;;1.61;61.80;93511.72;521157;28;847;-69
2024/03/22 00:31:49;;;;;;;14.07;10.07;;;;;;;1.60;61.06;93508.25;521013;28;880;-69
2024/03/22 00:32:07;;;;;;;16.33;11.13;;;;;;;1.62;61.41;93515.94;521028;28;781;-69
2024/03/22 00:32:22;;;;;;;16.58;11.50;;;;;;;1.58;61.46;93513.44;520971;28;816;-68
2024/03/22 00:32:38;;;;;;;15.05;11.15;;;;;;;1.58;61.46;93516.16;521085;28;872;-69
2024/03/22 00:32:53;;;;;;;16.03;10.70;;;;;;;1.57;61.32;93511.94;521082;28;741;-70
2024/03/22 00:33:09;;;;;;;20.10;12.63;;;;;;;1.57;61.76;93511.94;520941;28;784;-69
2024/03/22 00:33:24;;;;;;;21.52;14.10;;;;;;;1.52;61.36;93512.66;520962;28;848;-69
2024/03/22 00:33:40;;;;;;;21.77;13.50;;;;;;;1.50;61.58;93515.88;521005;28;804;-69
2024/03/22 00:33:55;;;;;;;23.35;12.98;;;;;;;1.49;61.88;93511.66;521042;28;753;-69
2024/03/22 00:34:11;;;;;;;21.10;12.23;;;;;;;1.51;61.75;93511.19;520974;28;785;-69
2024/03/22 00:34:26;;;;;;;18.00;11.82;;;;;;;1.52;61.59;93509.94;520945;28;832;-68
2024/03/22 00:34:41;;;;;;;15.97;11.07;;;;;;;1.52;61.87;93513.41;520930;28;832;-68
2024/03/22 00:34:57;;;;;;;14.00;10.48;;;;;;;1.51;61.61;93508.47;520869;28;797;-68
2024/03/22 00:35:13;;;;;;;13.70;10.30;;;;;;;1.53;61.69;93509.47;520924;28;804;-68
2024/03/22 00:35:28;;;;;;;15.80;10.57;;;;;;;1.54;60.99;93504.75;520901;28;832;-68
2024/03/22 00:35:43;;;;;;;16.70;11.10;;;;;;;1.54;61.57;93510.94;520939;28;753;-68
2024/03/22 00:35:59;;;;;;;16.77;11.25;;;;;;;1.51;61.99;93501.06;520910;28;777;-68
2024/03/22 00:36:14;;;;;;;16.50;11.07;;;;;;;1.52;62.01;93510.69;521112;28;872;-69
2024/03/22 00:36:30;;;;;;;17.17;11.88;;;;;;;1.54;61.94;93515.63;521315;28;761;-70
2024/03/22 00:36:45;;;;;;;16.90;11.80;;;;;;;1.52;61.71;93509.94;521414;28;757;-69
2024/03/22 00:37:01;;;;;;;14.77;10.63;;;;;;;1.50;61.70;93509.69;521500;28;979;-69
2024/03/22 00:37:16;;;;;;;16.93;11.23;;;;;;;1.50;61.37;93510.44;521323;28;927;-69
2024/03/22 00:37:32;;;;;;;17.02;11.65;;;;;;;1.52;61.53;93509.94;521348;28;788;-69
2024/03/22 00:37:47;;;;;;;15.80;11.63;;;;;;;1.52;61.67;93510.69;521392;28;816;-69
2024/03/22 00:38:03;;;;;;;16.73;11.97;;;;;;;1.53;61.71;93512.19;521288;28;856;-69
2024/03/22 00:38:18;;;;;;;18.60;12.45;;;;;;;1.54;61.83;93513.66;521321;28;867;-69
2024/03/22 00:38:34;;;;;;;18.33;12.20;;;;;;;1.56;61.96;93507.72;521364;28;851;-69
2024/03/22 00:38:49;;;;;;;19.23;12.13;;;;;;;1.58;62.00;93515.41;521498;28;750;-69
2024/03/22 00:39:05;;;;;;;18.90;12.43;;;;;;;1.56;62.39;93513.16;521253;28;1041;-69
2024/03/22 00:39:20;;;;;;;18.95;13.02;;;;;;;1.57;62.33;93511.19;521395;28;778;-69
2024/03/22 00:39:36;;;;;;;19.83;13.33;;;;;;;1.57;62.47;93516.63;521099;28;1946;-70
2024/03/22 00:39:51;;;;;;;19.20;13.73;;;;;;;1.54;62.31;93512.91;521155;28;884;-69
2024/03/22 00:40:07;;;;;;;21.13;13.77;;;;;;;1.48;61.76;93507.47;520821;28;807;-68
2024/03/22 00:40:23;;;;;;;20.90;13.10;;;;;;;1.38;62.04;93511.63;520886;28;910;-68
2024/03/22 00:40:38;;;;;;;21.73;13.43;;;;;;;1.37;61.89;93506.66;521018;28;784;-68
2024/03/22 00:40:53;;;;;;;21.50;13.90;;;;;;;1.39;61.95;93509.63;520905;28;880;-69
2024/03/22 00:41:09;;;;;;;20.35;13.82;;;;;;;1.41;62.09;93507.91;520849;28;858;-68
2024/03/22 00:41:24;;;;;;;20.00;13.13;;;;;;;1.43;61.55;93510.91;520945;28;796;-68
2024/03/22 00:41:40;;;;;;;19.27;12.75;;;;;;;1.47;61.39;93507.97;521010;28;757;-68
2024/03/22 00:41:55;;;;;;;20.80;13.93;;;;;;;1.48;61.74;93514.88;520912;28;733;-68
2024/03/22 00:42:11;;;;;;;22.88;14.73;;;;;;;1.44;61.39;93501.50;520850;28;765;-68
2024/03/22 00:42:26;;;;;;;21.57;13.97;;;;;;;1.56;61.11;93520.63;520772;28;760;-68
2024/03/22 00:42:41;;;;;;;19.87;13.40;;;;;;;1.57;61.22;93522.09;520842;28;888;-68
2024/03/22 00:42:58;;;;;;;20.88;13.52;;;;;;;1.54;61.45;93515.63;520886;28;733;-68
2024/03/22 00:43:13;;;;;;;20.45;13.48;;;;;;;1.56;61.59;93510.44;520859;28;958;-69
2024/03/22 00:43:29;;;;;;;19.10;13.82;;;;;;;1.53;61.28;93516.88;520838;28;757;-68
2024/03/22 00:43:44;;;;;;;23.00;14.57;;;;;;;1.47;61.39;93510.69;520833;28;811;-68
2024/03/22 00:43:59;;;;;;;24.63;14.38;;;;;;;1.45;61.79;93510.44;520795;28;911;-68
2024/03/22 00:44:15;;;;;;;19.80;13.10;;;;;;;1.42;61.67;93517.59;520859;28;725;-68
2024/03/22 00:44:30;;;;;;;19.23;12.50;;;;;;;1.40;61.90;93511.13;520827;28;756;-68
2024/03/22 00:44:46;;;;;;;20.95;13.15;;;;;;;1.40;61.73;93516.59;520719;28;1149;-68
2024/03/22 00:45:01;;;;;;;21.33;13.47;;;;;;;1.42;62.02;93519.56;520757;28;899;-68
2024/03/22 00:45:17;;;;;;;22.85;14.25;;;;;;;1.43;62.09;93516.34;520886;28;820;-68
2024/03/22 00:45:32;;;;;;;22.03;14.30;;;;;;;1.45;61.92;93513.88;520805;28;780;-68
2024/03/22 00:45:48;;;;;;;20.08;13.88;;;;;;;1.28;62.33;93485.09;520835;28;852;-68
2024/03/22 00:46:03;;;;;;;19.63;13.53;;;;;;;1.42;62.23;93506.72;520899;28;811;-68
2024/03/22 00:46:19;;;;;;;20.98;13.35;;;;;;;1.43;62.34;93510.16;520881;28;749;-68
2024/03/22 00:46:35;;;;;;;21.37;13.97;;;;;;;1.41;62.00;93513.38;520739;28;824;-68
2024/03/22 00:46:51;;;;;;;20.92;13.32;;;;;;;1.36;61.77;93508.66;520932;28;824;-68
2024/03/22 00:47:06;;;;;;;20.40;12.77;;;;;;;1.36;62.22;93508.66;520898;28;844;-68
2024/03/22 00:47:22;;;;;;;23.23;13.63;;;;;;;1.38;62.03;93503.47;520831;28;1125;-68
2024/03/22 00:47:37;;;;;;;23.43;14.40;;;;;;;1.40;61.87;93509.16;520726;28;966;-68
2024/03/22 00:47:53;;;;;;;24.38;15.95;;;;;;;1.44;61.86;93514.38;522552;28;1247;-68
2024/03/22 00:48:08;;;;;;;26.40;17.03;;;;;;;1.44;61.79;93519.81;522693;28;1457;-68
2024/03/22 00:48:24;;;;;;;22.80;15.57;;;;;;;1.41;61.99;93515.34;522795;28;907;-68
2024/03/22 00:48:39;;;;;;;23.77;15.35;;;;;;;1.38;62.22;93505.44;522741;28;797;-68
2024/03/22 00:48:55;;;;;;;24.53;15.20;;;;;;;1.36;62.37;93514.09;522770;28;860;-68
2024/03/22 00:49:10;;;;;;;21.13;13.80;;;;;;;1.34;62.18;93510.38;522755;28;910;-68
2024/03/22 00:49:26;;;;;;;19.10;13.57;;;;;;;1.34;62.11;93511.09;522715;28;776;-68
2024/03/22 00:49:41;;;;;;;20.00;13.60;;;;;;;1.31;62.66;93511.34;522430;28;856;-68
2024/03/22 00:49:57;;;;;;;21.58;13.88;;;;;;;1.28;62.47;93513.06;520788;28;844;-68
2024/03/22 00:50:12;;;;;;;23.50;14.60;;;;;;;1.22;62.23;93509.56;520818;28;781;-68
2024/03/22 00:50:28;;;;;;;22.70;14.18;;;;;;;1.16;62.55;93508.81;520759;28;1099;-68
2024/03/22 00:50:43;;;;;;;21.13;13.47;;;;;;;1.13;62.75;93512.47;520824;28;845;-68
2024/03/22 00:50:59;;;;;;;21.55;13.20;;;;;;;1.14;62.54;93513.22;520813;28;803;-68
2024/03/22 00:51:14;;;;;;;19.02;12.85;;;;;;;1.10;63.12;93508.03;520886;28;808;-68
2024/03/22 00:51:30;;;;;;;18.97;12.50;;;;;;;1.07;63.44;93508.25;520806;28;829;-68
2024/03/22 00:51:47;;;;;;;19.30;12.10;;;;;;;1.08;63.19;93509.75;520925;28;737;-68
2024/03/22 00:52:02;;;;;;;17.13;11.80;;;;;;;1.11;63.00;93509.50;520755;28;887;-68
2024/03/22 00:52:18;;;;;;;15.50;11.53;;;;;;;1.14;63.21;93513.22;520742;28;872;-68
2024/03/22 00:52:33;;;;;;;17.15;11.35;;;;;;;1.17;62.59;93507.56;520799;28;760;-68
2024/03/22 00:52:50;;;;;;;20.00;12.13;;;;;;;1.20;62.58;93505.84;520811;28;915;-68
2024/03/22 00:53:07;;;;;;;20.42;13.48;;;;;;;1.22;62.67;93506.84;520767;28;1061;-68
2024/03/22 00:53:23;;;;;;;18.90;13.35;;;;;;;1.24;62.35;93509.81;520840;28;903;-68
2024/03/22 00:53:38;;;;;;;20.20;13.60;;;;;;;1.27;62.39;93516.28;520755;28;829;-68
2024/03/22 00:53:54;;;;;;;18.17;13.03;;;;;;;1.29;62.46;93508.38;520931;28;737;-68
2024/03/22 00:54:09;;;;;;;18.75;13.43;;;;;;;1.31;61.95;93508.63;520844;28;831;-68
2024/03/22 00:54:25;;;;;;;20.77;13.90;;;;;;;1.32;62.04;93499.97;520849;28;819;-68
2024/03/22 00:54:40;;;;;;;20.17;13.33;;;;;;;1.36;62.40;93507.91;520674;28;960;-68
2024/03/22 00:54:56;;;;;;;20.80;13.73;;;;;;;1.37;61.77;93501.97;520788;28;757;-68
2024/03/22 00:55:11;;;;;;;20.47;13.37;;;;;;;1.39;61.95;93506.91;520820;28;773;-68
2024/03/22 00:55:26;;;;;;;19.48;12.70;;;;;;;1.41;61.67;93509.91;520846;28;844;-68
2024/03/22 00:55:42;;;;;;;20.17;12.53;;;;;;;1.40;61.94;93502.97;520836;28;792;-68
2024/03/22 00:55:59;;;;;;;19.08;12.10;;;;;;;1.23;61.94;93483.13;520852;28;836;-68
2024/03/22 00:56:14;;;;;;;16.55;11.55;;;;;;;1.40;62.03;93505.69;522685;28;824;-68
2024/03/22 00:56:30;;;;;;;16.60;11.23;;;;;;;1.39;62.06;93506.91;522717;28;825;-68
2024/03/22 00:56:45;;;;;;;17.60;11.23;;;;;;;1.39;62.38;93504.94;522805;28;1064;-68
2024/03/22 00:57:01;;;;;;;16.33;11.15;;;;;;;1.41;61.99;93507.16;522754;28;864;-68
2024/03/22 00:57:17;;;;;;;16.85;11.25;;;;;;;1.42;62.11;93503.22;522676;28;939;-68
2024/03/22 00:57:33;;;;;;;18.85;11.73;;;;;;;1.43;61.78;93504.72;522636;28;772;-68
2024/03/22 00:57:48;;;;;;;16.27;11.17;;;;;;;1.45;61.92;93497.56;522818;28;836;-68
2024/03/22 00:58:03;;;;;;;12.95;10.18;;;;;;;1.45;61.77;93508.44;522396;28;757;-68
2024/03/22 00:58:19;;;;;;;12.23;9.80;;;;;;;1.45;62.20;93503.00;520866;28;813;-68
2024/03/22 00:58:34;;;;;;;12.50;9.38;;;;;;;1.43;62.01;93508.19;520808;28;804;-68
2024/03/22 00:58:50;;;;;;;11.77;9.27;;;;;;;1.37;62.08;93499.25;520826;28;841;-67
2024/03/22 00:59:06;;;;;;;10.57;8.95;;;;;;;1.28;62.65;93502.19;520811;28;895;-68
2024/03/22 00:59:22;;;;;;;11.05;8.23;;;;;;;1.15;63.20;93506.59;520859;28;867;-68
2024/03/22 00:59:37;;;;;;;11.95;7.60;;;;;;;0.77;63.15;93467.06;520713;28;1989;-68
2024/03/22 00:59:52;;;;;;;8.73;6.40;;;;;;;1.02;63.26;93501.53;520783;28;844;-68
2024/03/22 01:00:09;;;;;;;8.13;6.03;;;;;;;1.04;63.57;93504.53;520830;28;803;-68
2024/03/22 01:00:25;;;;;;;9.15;6.30;;;;;;;1.07;63.32;93500.09;520762;28;844;-68
2024/03/22 01:00:40;;;;;;;7.25;5.53;;;;;;;1.09;63.06;93498.38;520821;28;792;-68
2024/03/22 01:00:55;;;;;;;6.10;5.00;;;;;;;1.11;62.62;93490.47;520828;28;800;-68
2024/03/22 01:01:11;;;;;;;6.03;4.80;;;;;;;1.14;62.61;93496.91;520894;28;832;-68
2024/03/22 01:01:27;;;;;;;7.05;5.32;;;;;;;1.17;62.39;93499.41;520897;28;772;-69
2024/03/22 01:01:42;;;;;;;7.13;5.35;;;;;;;1.18;62.61;93498.19;520848;28;773;-67
2024/03/22 01:01:58;;;;;;;7.13;5.23;;;;;;;1.18;62.66;93502.88;520890;28;753;-68
2024/03/22 01:02:13;;;;;;;6.97;5.43;;;;;;;1.15;62.38;93506.59;520830;28;840;-68
2024/03/22 01:02:28;;;;;;;7.27;5.80;;;;;;;1.12;62.88;93502.09;520780;28;1037;-68
2024/03/22 01:02:44;;;;;;;7.37;5.87;;;;;;;1.16;62.69;93511.53;520830;28;778;-68
2024/03/22 01:02:59;;;;;;;6.15;5.10;;;;;;;1.16;62.84;93502.63;520798;28;793;-68
2024/03/22 01:03:15;;;;;;;6.43;4.63;;;;;;;1.18;63.04;93500.16;520864;28;840;-67
2024/03/22 01:03:30;;;;;;;5.72;4.38;;;;;;;1.18;62.61;93503.63;520918;28;824;-68
2024/03/22 01:03:46;;;;;;;4.50;4.10;;;;;;;1.18;62.87;93500.91;520898;28;898;-68
2024/03/22 01:04:01;;;;;;;4.60;3.80;;;;;;;1.19;62.29;93499.66;520845;28;741;-68
2024/03/22 01:04:16;;;;;;;5.17;3.60;;;;;;;1.17;62.52;93495.97;520826;28;832;-67
2024/03/22 01:04:33;;;;;;;6.05;3.70;;;;;;;1.16;62.29;93495.22;520716;28;749;-68
2024/03/22 01:04:49;;;;;;;5.45;3.72;;;;;;;1.15;62.27;93498.41;520844;28;789;-68
2024/03/22 01:05:04;;;;;;;3.95;3.60;;;;;;;1.12;62.74;93496.66;520820;28;828;-67
2024/03/22 01:05:20;;;;;;;4.53;3.63;;;;;;;1.02;63.30;93496.09;520826;28;864;-67
2024/03/22 01:05:35;;;;;;;5.07;3.70;;;;;;;0.93;63.63;93504.47;520787;28;836;-68
2024/03/22 01:05:51;;;;;;;4.22;3.67;;;;;;;0.85;63.74;93506.13;520750;28;764;-68
2024/03/22 01:06:07;;;;;;;4.00;3.60;;;;;;;0.79;64.07;93499.94;520904;28;780;-68
2024/03/22 01:06:25;;;;;;;5.47;3.72;;;;;;;0.78;64.16;93503.88;520831;28;865;-68
2024/03/22 01:06:40;;;;;;;6.10;4.13;;;;;;;0.78;64.07;93499.19;520754;28;860;-68
2024/03/22 01:06:55;;;;;;;4.13;3.63;;;;;;;0.81;64.12;93500.19;520814;28;860;-68
2024/03/22 01:07:11;;;;;;;4.63;3.40;;;;;;;0.84;63.61;93510.09;520808;28;971;-68
2024/03/22 01:07:26;;;;;;;4.33;3.20;;;;;;;0.88;63.84;93501.72;520878;28;768;-68
2024/03/22 01:07:42;;;;;;;3.35;3.00;;;;;;;0.91;63.76;93501.47;520816;28;781;-68
2024/03/22 01:07:57;;;;;;;3.13;2.83;;;;;;;0.94;63.86;93507.91;520879;28;733;-68
2024/03/22 01:08:13;;;;;;;3.73;2.87;;;;;;;0.93;63.81;93499.03;520799;28;813;-68
2024/03/22 01:08:28;;;;;;;5.22;3.08;;;;;;;0.92;64.20;93497.53;520808;28;1093;-70
2024/03/22 01:08:43;;;;;;;4.97;3.13;;;;;;;0.95;64.24;93504.00;520856;28;813;-68
2024/03/22 01:08:59;;;;;;;3.88;3.30;;;;;;;0.96;64.05;93500.78;520871;28;832;-68
2024/03/22 01:09:14;;;;;;;6.37;3.57;;;;;;;0.97;63.69;93502.28;520876;28;839;-68
2024/03/22 01:09:30;;;;;;;6.15;3.30;;;;;;;0.99;63.52;93496.34;520803;28;1040;-68
2024/03/22 01:09:46;;;;;;;3.70;3.23;;;;;;;1.03;63.59;93496.84;520727;28;888;-68
2024/03/22 01:10:02;;;;;;;3.83;3.30;;;;;;;1.05;63.97;93497.88;520761;28;788;-68
2024/03/22 01:10:18;;;;;;;3.67;3.17;;;;;;;1.08;63.52;93501.59;520728;28;817;-68
2024/03/22 01:10:34;;;;;;;4.47;3.50;;;;;;;0.98;63.56;93483.97;520851;28;827;-68
2024/03/22 01:10:49;;;;;;;4.47;3.57;;;;;;;1.11;63.75;93500.59;520846;28;804;-68
2024/03/22 01:11:06;;;;;;;3.83;3.40;;;;;;;1.11;64.01;93500.59;520815;28;820;-68
2024/03/22 01:11:21;;;;;;;4.00;3.30;;;;;;;1.14;64.12;93502.34;520785;28;789;-68
2024/03/22 01:11:37;;;;;;;4.97;3.35;;;;;;;1.13;64.07;93509.00;520816;28;852;-68
2024/03/22 01:11:52;;;;;;;5.77;3.67;;;;;;;1.14;63.93;93502.34;520869;28;914;-68
2024/03/22 01:12:08;;;;;;;5.32;3.65;;;;;;;1.12;63.98;93505.56;520865;28;789;-68
2024/03/22 01:12:23;;;;;;;5.33;3.70;;;;;;;1.11;64.00;93493.19;520703;28;812;-68
2024/03/22 01:12:39;;;;;;;5.63;4.22;;;;;;;1.13;63.70;93501.59;520932;28;809;-68
2024/03/22 01:12:55;;;;;;;5.57;4.50;;;;;;;1.16;63.62;93502.63;521073;28;765;-68
2024/03/22 01:13:10;;;;;;;5.00;4.32;;;;;;;1.15;63.48;93498.41;521101;28;895;-68
2024/03/22 01:13:26;;;;;;;4.77;3.97;;;;;;;1.18;63.64;93508.31;521098;28;777;-68
2024/03/22 01:13:41;;;;;;;4.82;3.88;;;;;;;1.17;63.28;93496.69;521135;28;765;-68
2024/03/22 01:13:56;;;;;;;5.07;4.03;;;;;;;1.20;63.38;93501.16;521102;28;864;-68
2024/03/22 01:14:12;;;;;;;6.85;4.55;;;;;;;1.21;63.06;93499.91;521078;28;733;-68
2024/03/22 01:14:27;;;;;;;6.90;4.70;;;;;;;1.24;62.90;93501.66;521213;28;777;-68
2024/03/22 01:14:43;;;;;;;5.65;4.43;;;;;;;1.25;62.76;93507.84;521194;28;855;-68
2024/03/22 01:14:58;;;;;;;6.30;4.47;;;;;;;1.26;62.80;93498.44;521204;28;899;-68
2024/03/22 01:15:14;;;;;;;5.90;4.25;;;;;;;1.27;62.73;93497.22;521266;28;863;-68
2024/03/22 01:15:29;;;;;;;5.50;4.47;;;;;;;1.25;62.90;93499.69;521108;28;745;-68
2024/03/22 01:15:45;;;;;;;5.57;4.50;;;;;;;1.30;62.51;93501.72;521237;28;750;-68
2024/03/22 01:16:04;;;;;;;5.50;4.28;;;;;;;1.30;62.38;93505.16;521257;28;832;-68
2024/03/22 01:16:19;;;;;;;6.88;4.97;;;;;;;1.30;62.74;93502.44;521229;28;809;-68
2024/03/22 01:16:34;;;;;;;10.93;6.30;;;;;;;1.29;62.44;93498.25;521201;28;811;-68